Time;durP1;ratioP1;P1;durP2;ratioP2;P2;SDS_P1;SDS_P2;PMS_P1;PMS_P2;Temp;Humidity;BMP_temperature;BMP_pressure;BME280_temperature;BME280_humidity;BME280_pressure;Samples;Min_cycle;Max_cycle;Signal;HPM_P1;HPM_P2
2021/04/02 00:00:45;;;;;;;13.68;8.48;;;12.10;67.10;;;;;;5006161;28;20077;-63
2021/04/02 00:03:28;;;;;;;15.73;8.90;;;12.00;67.10;;;;;;4999818;28;20036;-63
2021/04/02 00:05:58;;;;;;;13.75;8.52;;;12.00;67.60;;;;;;5001492;28;20034;-64
2021/04/02 00:08:29;;;;;;;13.75;7.88;;;11.90;67.10;;;;;;5007453;28;20519;-64
2021/04/02 00:10:58;;;;;;;14.02;8.75;;;11.90;67.40;;;;;;4995397;28;20058;-64
2021/04/02 00:13:35;;;;;;;20.63;9.23;;;11.80;67.60;;;;;;5009365;28;20038;-64
2021/04/02 00:16:03;;;;;;;17.77;8.95;;;11.70;68.00;;;;;;5006271;28;20042;-64
2021/04/02 00:18:31;;;;;;;14.85;8.32;;;11.70;67.80;;;;;;4999710;28;20050;-64
2021/04/02 00:20:58;;;;;;;16.58;9.00;;;11.60;67.70;;;;;;5004448;28;20588;-64
2021/04/02 00:23:30;;;;;;;15.52;8.30;;;11.60;67.80;;;;;;5007692;28;20080;-64
2021/04/02 00:25:58;;;;;;;15.18;8.57;;;11.50;67.80;;;;;;5006397;28;20033;-64
2021/04/02 00:28:24;;;;;;;16.83;8.27;;;11.50;67.70;;;;;;5003771;28;20081;-64
2021/04/02 00:30:52;;;;;;;18.38;8.75;;;11.50;67.60;;;;;;5002945;28;20042;-64
2021/04/02 00:33:21;;;;;;;15.68;8.68;;;11.40;67.60;;;;;;5005406;28;20037;-64
2021/04/02 00:35:49;;;;;;;14.45;8.27;;;11.40;67.70;;;;;;5008233;28;20169;-64
2021/04/02 00:38:19;;;;;;;15.02;8.57;;;11.40;67.60;;;;;;4998819;28;20033;-64
2021/04/02 00:40:49;;;;;;;14.30;8.07;;;11.40;67.80;;;;;;5008514;28;20116;-64
2021/04/02 00:43:19;;;;;;;14.48;8.50;;;11.30;67.80;;;;;;5007463;28;20084;-64
2021/04/02 00:45:44;;;;;;;14.82;8.52;;;11.40;68.10;;;;;;5006481;28;20057;-64
2021/04/02 01:01:21;;;;;;;14.60;8.32;;;11.30;67.70;;;;;;5053634;27;20519;-65
2021/04/02 01:03:52;;;;;;;15.82;8.20;;;11.20;72.70;;;;;;5048392;28;20092;-65
2021/04/02 01:06:23;;;;;;;11.55;7.93;;;11.30;71.40;;;;;;5051279;28;20530;-66
2021/04/02 01:08:49;;;;;;;14.07;7.90;;;11.30;70.40;;;;;;5049549;28;20421;-64
2021/04/02 01:11:19;;;;;;;17.90;8.50;;;11.40;69.60;;;;;;5039081;28;20025;-65
2021/04/02 01:13:54;;;;;;;14.38;7.93;;;11.40;69.30;;;;;;5039602;28;20037;-65
2021/04/02 01:16:21;;;;;;;;;;;11.40;69.20;;;;;;5044060;28;20600;-62
2021/04/02 01:19:08;;;;;;;14.45;8.35;;;11.40;69.00;;;;;;5042641;28;19920;-65
2021/04/02 01:21:51;;;;;;;13.55;8.43;;;11.30;67.90;;;;;;5048595;28;20475;-65
2021/04/02 01:24:26;;;;;;;17.60;8.70;;;11.30;67.80;;;;;;5057002;28;20672;-64
2021/04/02 01:27:15;;;;;;;15.82;8.57;;;11.30;68.20;;;;;;5056368;28;20061;-65
2021/04/02 01:29:43;;;;;;;18.83;8.82;;;11.20;68.60;;;;;;5057973;28;20037;-64
2021/04/02 01:32:14;;;;;;;12.68;8.43;;;11.20;67.80;;;;;;5057899;28;20108;-65
2021/04/02 01:34:45;;;;;;;13.52;8.35;;;11.10;67.90;;;;;;5057690;28;20474;-64
2021/04/02 01:37:21;;;;;;;16.45;8.48;;;11.10;68.00;;;;;;5061068;28;20032;-65
2021/04/02 01:39:49;;;;;;;16.90;8.45;;;11.00;68.00;;;;;;5072635;28;20428;-65
2021/04/02 01:42:20;;;;;;;14.23;8.70;;;10.90;68.10;;;;;;5056865;28;20029;-65
2021/04/02 01:44:51;;;;;;;15.25;8.15;;;10.80;68.40;;;;;;5063003;28;20056;-65
2021/04/02 01:47:19;;;;;;;13.15;8.02;;;10.80;68.30;;;;;;5061830;28;20032;-65
2021/04/02 01:49:47;;;;;;;15.45;8.15;;;10.70;68.30;;;;;;5058139;28;20033;-64
2021/04/02 01:52:18;;;;;;;10.73;7.70;;;10.70;68.50;;;;;;5057426;28;20037;-64
2021/04/02 01:54:44;;;;;;;12.82;8.20;;;10.60;68.50;;;;;;5059973;28;20033;-65
2021/04/02 01:57:13;;;;;;;16.70;8.05;;;10.50;68.50;;;;;;5053251;28;20033;-65
2021/04/02 01:59:40;;;;;;;12.40;7.63;;;10.40;68.80;;;;;;5052526;28;20584;-65
2021/04/02 02:02:09;;;;;;;17.30;8.90;;;10.40;69.00;;;;;;5042873;28;20059;-64
2021/04/02 02:04:39;;;;;;;15.15;8.38;;;10.30;69.20;;;;;;5042235;28;20051;-64
2021/04/02 02:07:07;;;;;;;18.20;8.27;;;10.30;70.20;;;;;;5041139;28;20033;-65
2021/04/02 02:09:38;;;;;;;13.40;7.80;;;10.20;69.40;;;;;;5052188;28;20417;-65
2021/04/02 02:12:08;;;;;;;15.48;8.13;;;10.10;69.70;;;;;;5042645;28;20034;-64
2021/04/02 02:14:39;;;;;;;15.27;7.85;;;10.10;69.90;;;;;;5044129;28;20029;-65
2021/04/02 02:17:13;;;;;;;15.02;8.20;;;10.00;69.80;;;;;;5044018;28;20037;-64
2021/04/02 02:19:42;;;;;;;13.93;7.68;;;10.00;70.30;;;;;;5039581;28;20041;-64
2021/04/02 02:22:11;;;;;;;14.45;7.75;;;9.90;70.10;;;;;;5044947;28;20033;-64
2021/04/02 02:24:38;;;;;;;14.93;8.15;;;9.90;70.00;;;;;;5043743;28;20485;-64
2021/04/02 02:27:10;;;;;;;14.95;7.60;;;9.90;70.20;;;;;;5046999;28;20029;-64
2021/04/02 02:29:35;;;;;;;18.35;8.10;;;9.90;70.70;;;;;;5041522;28;20365;-64
2021/04/02 02:32:04;;;;;;;15.02;8.20;;;9.80;70.40;;;;;;5040805;28;20648;-64
2021/04/02 02:34:29;;;;;;;19.15;8.18;;;9.80;70.60;;;;;;5044131;28;20033;-64
2021/04/02 02:36:58;;;;;;;13.48;7.60;;;9.70;71.30;;;;;;5049390;28;20443;-64
2021/04/02 02:39:24;;;;;;;16.90;8.10;;;9.70;70.60;;;;;;5041306;28;20044;-65
2021/04/02 02:41:50;;;;;;;15.07;7.60;;;9.70;70.60;;;;;;5049976;28;20044;-65
2021/04/02 02:44:15;;;;;;;16.55;8.18;;;9.60;70.60;;;;;;5042383;28;20033;-65
2021/04/02 02:46:46;;;;;;;14.60;7.38;;;9.60;70.60;;;;;;5042906;28;21316;-64
2021/04/02 02:49:17;;;;;;;17.20;7.75;;;9.60;70.70;;;;;;5034061;28;20045;-65
2021/04/02 02:51:44;;;;;;;15.15;7.57;;;9.50;70.80;;;;;;5032102;28;20036;-65
2021/04/02 02:54:19;;;;;;;19.35;7.88;;;9.50;70.70;;;;;;5041252;28;20041;-60
2021/04/02 02:56:52;;;;;;;16.33;8.20;;;9.50;71.60;;;;;;5038541;28;20034;-65
2021/04/02 02:59:23;;;;;;;20.23;8.25;;;9.50;70.70;;;;;;5044415;28;20048;-65
2021/04/02 03:01:51;;;;;;;13.68;7.70;;;9.40;70.60;;;;;;5045624;28;20037;-64
2021/04/02 03:04:18;;;;;;;16.95;7.85;;;9.40;71.40;;;;;;5046892;28;20110;-65
2021/04/02 03:06:49;;;;;;;15.73;7.50;;;9.40;70.60;;;;;;5062531;28;20044;-65
2021/04/02 03:09:23;;;;;;;16.90;7.75;;;9.40;70.80;;;;;;5046519;28;20033;-65
2021/04/02 03:11:53;;;;;;;16.83;8.25;;;9.30;70.70;;;;;;5044509;28;20025;-64
2021/04/02 03:14:24;;;;;;;17.05;7.70;;;9.30;70.60;;;;;;5045612;28;20060;-65
2021/04/02 03:16:54;;;;;;;19.13;8.57;;;9.30;70.90;;;;;;5047183;28;20033;-65
2021/04/02 03:19:22;;;;;;;13.93;7.72;;;9.20;70.80;;;;;;5047107;28;20574;-65
2021/04/02 03:21:50;;;;;;;16.50;8.43;;;9.20;71.00;;;;;;5042833;28;20528;-64
2021/04/02 03:24:16;;;;;;;17.38;8.38;;;9.20;71.10;;;;;;5048006;28;20420;-64
2021/04/02 03:26:52;;;;;;;20.48;8.77;;;9.10;71.30;;;;;;5046767;28;20033;-64
2021/04/02 03:29:21;;;;;;;20.95;8.93;;;9.10;71.80;;;;;;5048555;28;20519;-65
2021/04/02 03:31:50;;;;;;;19.60;8.32;;;9.00;71.60;;;;;;5045985;28;20578;-64
2021/04/02 03:34:20;;;;;;;23.38;9.35;;;9.00;71.60;;;;;;5047404;28;20508;-65
2021/04/02 03:36:48;;;;;;;17.98;8.68;;;9.00;72.00;;;;;;5047434;28;20123;-65
2021/04/02 03:39:27;;;;;;;18.40;8.50;;;9.00;71.90;;;;;;5048129;28;20112;-65
2021/04/02 03:42:00;;;;;;;21.00;8.88;;;9.00;72.30;;;;;;5047666;28;20029;-64
2021/04/02 03:44:35;;;;;;;13.85;7.68;;;9.00;72.20;;;;;;5048113;28;20053;-65
2021/04/02 03:47:07;;;;;;;17.58;8.70;;;9.00;72.80;;;;;;5048193;28;20029;-65
2021/04/02 03:49:38;;;;;;;16.70;8.05;;;9.00;72.70;;;;;;5046941;28;20041;-65
2021/04/02 03:52:14;;;;;;;16.35;8.52;;;9.00;72.40;;;;;;5046931;28;20029;-65
2021/04/02 03:54:43;;;;;;;19.65;8.35;;;9.00;72.50;;;;;;5047726;28;20033;-64
2021/04/02 03:57:12;;;;;;;16.30;7.78;;;9.00;72.20;;;;;;5046780;28;20033;-65
2021/04/02 03:59:39;;;;;;;19.70;8.95;;;8.90;71.80;;;;;;5047037;28;20063;-65
2021/04/02 04:02:09;;;;;;;19.77;8.68;;;8.90;71.80;;;;;;5045619;28;20025;-65
2021/04/02 04:04:40;;;;;;;14.32;8.13;;;8.90;71.80;;;;;;5046479;28;20479;-65
2021/04/02 04:07:12;;;;;;;17.35;8.43;;;8.90;71.70;;;;;;5047170;28;20029;-65
2021/04/02 04:09:41;;;;;;;19.05;8.60;;;8.90;71.70;;;;;;5048329;28;20025;-65
2021/04/02 04:12:10;;;;;;;20.30;9.70;;;8.80;71.60;;;;;;5043764;28;20029;-65
2021/04/02 04:14:42;;;;;;;18.52;8.02;;;8.80;71.70;;;;;;5045631;28;20386;-65
2021/04/02 04:17:13;;;;;;;17.50;8.45;;;8.70;71.60;;;;;;5045054;28;20045;-65
2021/04/02 04:19:40;;;;;;;24.85;9.15;;;8.70;71.40;;;;;;5046973;28;20029;-64
2021/04/02 04:22:10;;;;;;;21.50;8.82;;;8.80;71.40;;;;;;5046750;28;20047;-65
2021/04/02 04:24:37;;;;;;;18.10;8.23;;;8.70;71.60;;;;;;5046633;28;20468;-65
2021/04/02 04:27:04;;;;;;;15.88;8.38;;;8.70;71.30;;;;;;5047445;28;20037;-64
2021/04/02 04:29:36;;;;;;;16.17;8.60;;;8.70;71.40;;;;;;5046629;28;20080;-65
2021/04/02 04:32:05;;;;;;;15.75;8.00;;;8.70;71.40;;;;;;5047047;28;20036;-65
2021/04/02 04:34:34;;;;;;;15.85;8.07;;;8.60;71.10;;;;;;5046637;28;20025;-65
2021/04/02 04:37:03;;;;;;;17.85;8.68;;;8.60;71.30;;;;;;5044709;28;20497;-65
2021/04/02 04:39:32;;;;;;;15.73;8.27;;;8.60;71.20;;;;;;5046175;28;20029;-65
2021/04/02 04:41:59;;;;;;;18.17;8.77;;;8.60;71.30;;;;;;5038282;28;20033;-64
2021/04/02 04:44:26;;;;;;;21.23;8.52;;;8.50;71.20;;;;;;5047155;28;20033;-65
2021/04/02 04:46:54;;;;;;;17.27;9.15;;;8.50;71.10;;;;;;5045769;28;20041;-65
2021/04/02 04:49:24;;;;;;;18.63;8.75;;;8.50;71.20;;;;;;5038823;28;20033;-65
2021/04/02 04:51:53;;;;;;;18.92;8.98;;;8.50;71.50;;;;;;5044758;28;20033;-65
2021/04/02 04:54:26;;;;;;;21.27;8.93;;;8.50;71.30;;;;;;5047197;28;20033;-65
2021/04/02 04:56:57;;;;;;;18.05;9.07;;;8.50;71.40;;;;;;5044798;28;20033;-64
2021/04/02 04:59:28;;;;;;;15.93;9.07;;;8.50;71.30;;;;;;5047291;28;20037;-64
2021/04/02 05:01:59;;;;;;;16.38;8.50;;;8.50;71.10;;;;;;5046994;28;20029;-65
2021/04/02 05:04:25;;;;;;;20.20;9.95;;;8.50;71.10;;;;;;5046433;28;20795;-65
2021/04/02 05:06:59;;;;;;;17.52;9.35;;;8.40;71.20;;;;;;5039115;28;20493;-65
2021/04/02 05:09:28;;;;;;;16.58;8.80;;;8.40;71.30;;;;;;5047126;28;20045;-65
2021/04/02 05:11:58;;;;;;;16.73;9.02;;;8.40;71.10;;;;;;5042059;28;20078;-65
2021/04/02 05:14:26;;;;;;;16.65;8.90;;;8.40;71.10;;;;;;5045941;28;20028;-64
2021/04/02 05:16:53;;;;;;;15.38;8.18;;;8.40;71.20;;;;;;5053170;28;20037;-65
2021/04/02 05:19:24;;;;;;;15.93;8.38;;;8.30;71.10;;;;;;5046329;28;20409;-65
2021/04/02 05:21:52;;;;;;;26.05;13.68;;;8.30;71.30;;;;;;5045938;28;20033;-64
2021/04/02 05:24:20;;;;;;;25.85;12.93;;;8.30;71.30;;;;;;5046888;28;20413;-65
2021/04/02 05:26:51;;;;;;;22.00;12.23;;;8.30;71.30;;;;;;5046097;28;20037;-64
2021/04/02 05:29:19;;;;;;;21.45;11.07;;;8.30;71.40;;;;;;5046387;28;20029;-64
2021/04/02 05:31:47;;;;;;;19.08;10.98;;;8.30;71.40;;;;;;5046080;28;20037;-64
2021/04/02 05:34:17;;;;;;;19.80;10.77;;;8.20;71.40;;;;;;5045664;28;20545;-65
2021/04/02 05:36:43;;;;;;;17.63;11.40;;;8.20;71.80;;;;;;5046021;28;20041;-65
2021/04/02 05:39:14;;;;;;;24.95;13.07;;;8.20;71.70;;;;;;5048726;28;20032;-65
2021/04/02 05:42:05;;;;;;;23.55;13.30;;;8.20;71.90;;;;;;5049509;28;20433;-65
2021/04/02 05:44:39;;;;;;;26.30;14.32;;;8.20;73.10;;;;;;5062131;28;20120;-64
2021/04/02 05:47:07;;;;;;;25.77;15.32;;;8.10;72.20;;;;;;5049881;28;20036;-65
2021/04/02 05:49:38;;;;;;;28.38;15.85;;;8.20;72.50;;;;;;5050014;28;20037;-65
2021/04/02 05:52:07;;;;;;;27.92;15.07;;;8.10;72.70;;;;;;5050793;28;20706;-64
2021/04/02 05:54:45;;;;;;;28.45;14.75;;;8.10;72.70;;;;;;5049248;28;20033;-65
2021/04/02 05:57:16;;;;;;;27.52;13.95;;;8.20;73.70;;;;;;5049602;28;20029;-65
2021/04/02 05:59:43;;;;;;;26.17;14.25;;;8.20;73.50;;;;;;5050637;28;20574;-65
2021/04/02 06:02:14;;;;;;;35.38;16.40;;;8.20;73.30;;;;;;5049193;28;20048;-65
2021/04/02 06:04:44;;;;;;;32.42;16.77;;;8.20;73.90;;;;;;5049295;28;20556;-65
2021/04/02 06:07:12;;;;;;;26.70;15.57;;;8.20;74.00;;;;;;5062244;28;20045;-64
2021/04/02 06:09:40;;;;;;;33.50;15.80;;;8.30;74.10;;;;;;5034063;28;20436;-65
2021/04/02 06:12:12;;;;;;;31.90;16.98;;;8.30;74.20;;;;;;5037445;28;20087;-65
2021/04/02 06:14:39;;;;;;;36.10;17.67;;;8.40;74.90;;;;;;5034962;28;20036;-65
2021/04/02 06:17:04;;;;;;;35.33;18.08;;;8.40;74.70;;;;;;5042229;28;20128;-65
2021/04/02 06:19:30;;;;;;;30.42;17.50;;;8.50;74.80;;;;;;5043392;28;20139;-66
2021/04/02 06:21:57;;;;;;;35.80;18.67;;;8.50;74.80;;;;;;5059059;28;20035;-63
2021/04/02 06:24:43;;;;;;;37.83;18.88;;;8.50;74.90;;;;;;5041108;28;20517;-64
2021/04/02 06:27:14;;;;;;;35.30;19.23;;;8.60;76.00;;;;;;5041413;28;20037;-64
2021/04/02 06:30:01;;;;;;;34.47;19.17;;;8.70;76.10;;;;;;5043124;28;20047;-64
2021/04/02 06:32:40;;;;;;;40.10;20.40;;;8.80;75.70;;;;;;5042866;28;20029;-64
2021/04/02 06:35:08;;;;;;;37.28;20.17;;;8.80;75.70;;;;;;5036489;28;20024;-64
2021/04/02 06:37:35;;;;;;;36.25;18.08;;;8.90;75.10;;;;;;5042671;28;20509;-64
2021/04/02 06:40:01;;;;;;;36.88;19.20;;;9.00;75.20;;;;;;5044538;28;20069;-64
2021/04/02 06:42:35;;;;;;;36.75;20.45;;;9.10;75.30;;;;;;5044228;28;20144;-64
2021/04/02 06:45:08;;;;;;;42.08;21.63;;;9.20;76.00;;;;;;5041674;28;20110;-64
2021/04/02 06:47:39;;;;;;;42.67;21.85;;;9.30;75.30;;;;;;5044364;28;20087;-64
2021/04/02 06:50:22;;;;;;;43.97;23.27;;;9.40;75.20;;;;;;5041167;28;20059;-64
2021/04/02 06:52:58;;;;;;;38.60;19.45;;;9.50;75.60;;;;;;5045010;28;20413;-64
2021/04/02 06:55:25;;;;;;;47.90;21.33;;;9.60;75.20;;;;;;5045274;28;20576;-64
2021/04/02 06:57:56;;;;;;;43.30;21.55;;;9.70;74.80;;;;;;5045527;28;20120;-64
2021/04/02 07:00:25;;;;;;;39.42;21.15;;;9.80;75.10;;;;;;5044221;28;20037;-64
2021/04/02 07:02:53;;;;;;;40.20;21.30;;;9.90;74.80;;;;;;5034648;28;20040;-63
2021/04/02 07:05:23;;;;;;;40.90;22.10;;;10.00;74.80;;;;;;5042014;28;20064;-64
2021/04/02 07:08:06;;;;;;;42.33;20.05;;;10.10;75.10;;;;;;5044546;28;20045;-63
2021/04/02 07:10:37;;;;;;;43.72;22.23;;;10.20;75.20;;;;;;5037527;28;20041;-64
2021/04/02 07:13:09;;;;;;;41.33;22.45;;;10.30;74.40;;;;;;5037579;28;20371;-64
2021/04/02 07:15:38;;;;;;;36.95;20.63;;;10.40;74.40;;;;;;5039178;28;20068;-63
2021/04/02 07:18:09;;;;;;;33.22;19.73;;;10.50;74.00;;;;;;5052924;28;20060;-64
2021/04/02 07:20:39;;;;;;;37.30;19.90;;;10.60;74.00;;;;;;5041702;28;20497;-64
2021/04/02 07:23:06;;;;;;;36.60;19.65;;;10.70;73.90;;;;;;5042220;28;20037;-64
2021/04/02 07:25:37;;;;;;;34.67;19.67;;;10.80;73.60;;;;;;5046342;28;20040;-64
2021/04/02 07:28:06;;;;;;;32.42;18.52;;;10.80;73.50;;;;;;5044090;28;20151;-65
2021/04/02 07:30:35;;;;;;;35.72;18.05;;;10.90;73.70;;;;;;5041948;28;20056;-64
2021/04/02 07:33:08;;;;;;;30.02;16.60;;;11.00;73.30;;;;;;5041134;28;20033;-65
2021/04/02 07:35:36;;;;;;;32.95;18.05;;;11.10;73.10;;;;;;5043405;28;20048;-64
2021/04/02 07:38:09;;;;;;;32.10;17.90;;;11.10;72.80;;;;;;5057480;28;20112;-63
2021/04/02 07:40:35;;;;;;;30.90;18.52;;;11.20;72.60;;;;;;5043874;28;20171;-64
2021/04/02 07:43:07;;;;;;;29.90;17.33;;;11.30;72.60;;;;;;5039793;28;20200;-64
2021/04/02 07:45:37;;;;;;;28.98;17.27;;;11.30;72.50;;;;;;5045104;28;20037;-64
2021/04/02 07:48:10;;;;;;;30.52;16.73;;;11.40;72.40;;;;;;5041251;28;20032;-64
2021/04/02 07:51:02;;;;;;;30.20;17.27;;;11.40;72.10;;;;;;5040462;28;20036;-64
2021/04/02 07:53:31;;;;;;;27.65;15.95;;;11.50;72.40;;;;;;5043239;28;20032;-64
2021/04/02 07:56:11;;;;;;;25.17;15.68;;;11.50;71.60;;;;;;5040042;28;20494;-65
2021/04/02 07:58:41;;;;;;;26.20;16.00;;;11.60;71.80;;;;;;5043463;28;20053;-64
2021/04/02 08:01:11;;;;;;;27.25;15.25;;;11.60;71.60;;;;;;5043589;28;20044;-64
2021/04/02 08:03:37;;;;;;;26.33;14.88;;;11.60;71.40;;;;;;5039464;28;20510;-64
2021/04/02 08:06:07;;;;;;;26.73;16.23;;;11.70;71.20;;;;;;5040078;28;20053;-64
2021/04/02 08:08:45;;;;;;;26.02;15.93;;;11.80;71.90;;;;;;5042004;28;20108;-64
2021/04/02 08:11:13;;;;;;;25.05;14.85;;;11.80;71.10;;;;;;5036510;28;20028;-64
2021/04/02 08:14:09;;;;;;;26.35;16.33;;;11.80;70.70;;;;;;5035762;28;20523;-64
2021/04/02 08:16:48;;;;;;;27.73;16.33;;;11.90;70.90;;;;;;5041389;28;20025;-63
2021/04/02 08:19:33;;;;;;;29.13;15.93;;;11.90;70.80;;;;;;5037724;28;20048;-64
2021/04/02 08:22:08;;;;;;;26.98;15.82;;;12.00;70.70;;;;;;5036265;28;20037;-64
2021/04/02 08:24:45;;;;;;;29.52;17.85;;;12.00;70.40;;;;;;5042911;28;20029;-64
2021/04/02 08:27:11;;;;;;;29.30;16.80;;;12.10;70.20;;;;;;5033433;28;20041;-64
2021/04/02 08:29:43;;;;;;;26.63;16.60;;;12.10;70.00;;;;;;5040084;28;20590;-64
2021/04/02 08:32:12;;;;;;;30.35;17.33;;;12.20;70.20;;;;;;5041297;28;20068;-64
2021/04/02 08:34:42;;;;;;;28.30;16.98;;;12.20;70.10;;;;;;5040101;28;21158;-64
2021/04/02 08:37:13;;;;;;;26.65;16.58;;;12.20;69.90;;;;;;5043639;28;20029;-64
2021/04/02 08:39:46;;;;;;;29.42;18.42;;;12.30;69.70;;;;;;5044727;28;20029;-65
2021/04/02 08:42:12;;;;;;;26.98;16.02;;;12.30;69.30;;;;;;5041706;28;20029;-63
2021/04/02 08:44:43;;;;;;;28.63;16.98;;;12.40;69.30;;;;;;5044024;28;20072;-64
2021/04/02 08:47:18;;;;;;;27.92;16.92;;;12.30;69.20;;;;;;5042820;28;20588;-64
2021/04/02 08:49:52;;;;;;;26.30;16.20;;;12.40;69.20;;;;;;5033598;28;20073;-64
2021/04/02 08:52:30;;;;;;;28.55;16.80;;;12.50;69.20;;;;;;5039847;28;20029;-64
2021/04/02 08:55:04;;;;;;;24.60;15.75;;;12.50;69.40;;;;;;5056861;28;20103;-64
2021/04/02 08:57:33;;;;;;;23.15;14.43;;;12.50;69.30;;;;;;5039024;28;20114;-64
2021/04/02 09:00:00;;;;;;;20.77;13.93;;;12.60;69.30;;;;;;5043074;28;20041;-65
2021/04/02 09:02:29;;;;;;;28.00;16.13;;;12.70;69.00;;;;;;5038881;28;20029;-65
2021/04/02 09:04:56;;;;;;;26.45;16.50;;;12.80;68.50;;;;;;5033227;28;20041;-66
2021/04/02 09:07:24;;;;;;;23.35;14.30;;;12.80;68.20;;;;;;5037072;28;20112;-64
2021/04/02 09:09:52;;;;;;;22.88;14.65;;;12.80;68.10;;;;;;5056533;28;20464;-65
2021/04/02 09:12:19;;;;;;;23.08;14.43;;;12.90;68.10;;;;;;5045692;28;20037;-65
2021/04/02 09:14:51;;;;;;;23.50;14.43;;;12.90;68.00;;;;;;5050466;28;20457;-65
2021/04/02 09:17:30;;;;;;;24.83;14.95;;;13.00;67.80;;;;;;5050694;28;20033;-64
2021/04/02 09:20:03;;;;;;;21.67;13.75;;;13.10;67.60;;;;;;5050406;28;20029;-65
2021/04/02 09:22:31;;;;;;;22.10;13.75;;;13.20;68.30;;;;;;5048534;28;20041;-65
2021/04/02 09:24:57;;;;;;;21.70;14.27;;;13.20;67.50;;;;;;5050547;28;20501;-65
2021/04/02 09:27:28;;;;;;;25.08;14.77;;;13.30;66.70;;;;;;5051281;28;20044;-65
2021/04/02 09:29:56;;;;;;;22.20;14.13;;;13.40;66.50;;;;;;5049896;28;20037;-65
2021/04/02 09:32:29;;;;;;;18.55;12.60;;;13.40;66.30;;;;;;5048992;28;20025;-65
2021/04/02 09:35:03;;;;;;;21.38;13.50;;;13.50;66.30;;;;;;5048409;28;20025;-65
2021/04/02 09:37:34;;;;;;;20.25;13.30;;;13.60;65.70;;;;;;5046971;28;20574;-65
2021/04/02 09:40:08;;;;;;;20.02;13.38;;;13.60;65.20;;;;;;5046774;28;20045;-66
2021/04/02 09:42:35;;;;;;;21.05;13.43;;;13.70;65.50;;;;;;5041604;28;20548;-65
2021/04/02 09:45:09;;;;;;;21.83;14.50;;;13.70;65.20;;;;;;5041307;28;20033;-65
2021/04/02 09:47:46;;;;;;;22.42;14.07;;;13.80;64.20;;;;;;5039258;28;20033;-64
2021/04/02 09:50:13;;;;;;;24.15;14.52;;;13.80;63.80;;;;;;5045290;28;20037;-65
2021/04/02 09:52:40;;;;;;;22.20;13.77;;;13.80;64.50;;;;;;5043784;28;20448;-64
2021/04/02 09:55:07;;;;;;;22.85;13.82;;;13.80;64.50;;;;;;5040131;28;20056;-65
2021/04/02 09:57:34;;;;;;;20.80;13.73;;;13.90;64.60;;;;;;5043460;28;20412;-64
2021/04/02 10:00:07;;;;;;;23.05;14.52;;;13.90;64.80;;;;;;5037373;28;20047;-64
2021/04/02 10:02:38;;;;;;;24.13;13.88;;;14.00;63.90;;;;;;5037583;28;20171;-65
2021/04/02 10:05:08;;;;;;;22.55;13.73;;;14.00;64.00;;;;;;5039858;28;20561;-64
2021/04/02 10:07:34;;;;;;;20.95;13.98;;;14.00;63.90;;;;;;5049174;28;20040;-65
2021/04/02 10:10:02;;;;;;;22.60;14.00;;;14.10;64.20;;;;;;5044304;28;20033;-66
2021/04/02 10:12:28;;;;;;;19.92;13.60;;;14.20;64.10;;;;;;5044389;28;20033;-65
2021/04/02 10:14:56;;;;;;;19.50;13.68;;;14.20;63.80;;;;;;5046830;28;20040;-65
2021/04/02 10:17:26;;;;;;;20.17;13.20;;;14.20;63.30;;;;;;5050025;28;20041;-65
2021/04/02 10:19:52;;;;;;;20.42;13.32;;;14.30;63.60;;;;;;5048964;28;20033;-65
2021/04/02 10:22:22;;;;;;;17.88;12.55;;;14.30;63.40;;;;;;5046001;28;20044;-65
2021/04/02 10:24:48;;;;;;;21.02;12.43;;;14.40;63.90;;;;;;5046534;28;20037;-66
2021/04/02 10:27:16;;;;;;;20.17;13.25;;;14.50;63.80;;;;;;5048646;28;20299;-65
2021/04/02 10:29:44;;;;;;;20.77;13.45;;;14.60;63.30;;;;;;5047698;28;20075;-64
2021/04/02 10:32:12;;;;;;;18.58;12.45;;;14.60;62.40;;;;;;5047168;28;20055;-65
2021/04/02 10:34:43;;;;;;;19.10;12.82;;;14.70;62.60;;;;;;5046214;28;20033;-65
2021/04/02 10:37:13;;;;;;;17.98;12.63;;;14.80;62.60;;;;;;5062978;28;20037;-65
2021/04/02 10:39:39;;;;;;;18.65;12.65;;;14.80;62.30;;;;;;5049851;28;20025;-65
2021/04/02 10:42:09;;;;;;;21.70;13.93;;;14.90;62.10;;;;;;5047105;28;20055;-65
2021/04/02 10:44:34;;;;;;;27.40;12.85;;;15.00;61.50;;;;;;5047323;28;20037;-65
2021/04/02 10:47:02;;;;;;;20.02;12.80;;;15.00;61.80;;;;;;5048816;28;20523;-65
2021/04/02 10:49:30;;;;;;;17.98;12.27;;;15.10;61.50;;;;;;5046726;28;20056;-65
2021/04/02 10:51:57;;;;;;;17.52;12.90;;;15.20;61.20;;;;;;5047984;28;20041;-65
2021/04/02 10:54:23;;;;;;;17.77;11.98;;;15.20;60.80;;;;;;5042308;28;20025;-65
2021/04/02 10:56:51;;;;;;;18.52;12.30;;;15.20;60.60;;;;;;5042385;28;20090;-65
2021/04/02 10:59:19;;;;;;;19.35;13.15;;;15.30;60.60;;;;;;5044243;28;20539;-65
2021/04/02 11:01:44;;;;;;;21.48;13.82;;;15.40;60.60;;;;;;5054140;28;20025;-64
2021/04/02 11:04:12;;;;;;;19.58;13.00;;;15.40;60.40;;;;;;5041226;28;20095;-65
2021/04/02 11:06:42;;;;;;;19.83;13.30;;;15.40;60.50;;;;;;5055020;28;20466;-65
2021/04/02 11:09:10;;;;;;;16.83;12.32;;;15.50;60.10;;;;;;5041586;28;20043;-64
2021/04/02 11:11:36;;;;;;;18.80;12.93;;;15.70;59.90;;;;;;5040031;28;20037;-62
2021/04/02 11:14:02;;;;;;;18.20;12.57;;;15.70;60.10;;;;;;5038771;28;20079;-65
2021/04/02 11:16:27;;;;;;;18.58;13.27;;;15.80;60.30;;;;;;5031869;28;20048;-65
2021/04/02 11:18:53;;;;;;;16.38;12.35;;;15.80;59.80;;;;;;5033783;28;20131;-65
2021/04/02 11:21:23;;;;;;;19.05;11.80;;;15.90;59.80;;;;;;5028106;28;20025;-65
2021/04/02 11:23:51;;;;;;;20.52;12.32;;;15.90;59.60;;;;;;5040621;28;20103;-65
2021/04/02 11:26:19;;;;;;;17.52;11.40;;;16.00;59.40;;;;;;5032054;28;20025;-64
2021/04/02 11:28:47;;;;;;;18.70;12.38;;;16.00;59.20;;;;;;5032090;28;20124;-65
2021/04/02 11:31:18;;;;;;;15.88;11.23;;;16.00;58.80;;;;;;5032428;28;20037;-64
2021/04/02 11:33:46;;;;;;;13.52;11.35;;;16.00;58.90;;;;;;5030563;28;20509;-65
2021/04/02 11:36:14;;;;;;;16.73;11.70;;;16.00;58.60;;;;;;5030607;28;20414;-64
2021/04/02 11:38:42;;;;;;;16.58;10.88;;;16.00;58.50;;;;;;5032959;28;20041;-65
2021/04/02 11:41:11;;;;;;;13.98;11.20;;;16.10;58.70;;;;;;5046461;28;20084;-65
2021/04/02 11:43:39;;;;;;;16.52;11.88;;;16.00;58.50;;;;;;5035520;28;20029;-65
2021/04/02 11:46:05;;;;;;;14.98;11.60;;;16.00;58.30;;;;;;5029992;28;20029;-65
2021/04/02 11:48:33;;;;;;;16.52;10.85;;;16.00;58.00;;;;;;5031458;28;20722;-66
2021/04/02 11:50:59;;;;;;;18.17;11.35;;;16.00;58.20;;;;;;5030102;28;20120;-64
2021/04/02 11:53:24;;;;;;;15.43;11.45;;;16.00;58.20;;;;;;5031242;28;20090;-65
2021/04/02 11:55:52;;;;;;;15.02;10.57;;;16.10;58.00;;;;;;5032959;28;20449;-64
2021/04/02 11:58:21;;;;;;;16.00;11.48;;;16.00;57.90;;;;;;5031451;28;20045;-64
2021/04/02 12:00:51;;;;;;;14.23;10.73;;;16.10;57.80;;;;;;5027454;28;20041;-64
2021/04/02 12:06:15;;;;;;;17.13;12.13;;;16.00;57.20;;;;;;5875232;23;20019;-63
2021/04/02 12:08:45;;;;;;;13.32;9.70;;;15.90;55.10;;;;;;4925895;28;20047;-64
2021/04/02 12:11:11;;;;;;;13.35;10.85;;;15.90;56.50;;;;;;4927633;28;20618;-63
2021/04/02 12:13:36;;;;;;;13.32;10.30;;;15.90;56.70;;;;;;4983312;28;20046;-64
2021/04/02 12:16:07;;;;;;;12.88;9.68;;;15.80;56.30;;;;;;4978327;28;20613;-64
2021/04/02 12:18:35;;;;;;;11.90;9.30;;;15.80;56.50;;;;;;4960040;28;20121;-63
2021/04/02 12:21:03;;;;;;;13.85;10.27;;;15.70;56.20;;;;;;4950148;28;20067;-64
2021/04/02 12:23:31;;;;;;;11.77;8.75;;;15.70;55.30;;;;;;4949313;28;20622;-64
2021/04/02 12:25:58;;;;;;;13.70;8.88;;;15.60;56.20;;;;;;4960825;28;20039;-63
2021/04/02 12:28:26;;;;;;;11.10;9.00;;;15.60;56.20;;;;;;4960562;28;20110;-64
2021/04/02 12:30:54;;;;;;;12.23;10.13;;;15.60;56.00;;;;;;4959892;28;20463;-64
2021/04/02 12:33:20;;;;;;;13.35;9.63;;;15.50;55.10;;;;;;4960107;28;20053;-63
2021/04/02 12:35:50;;;;;;;11.38;8.25;;;15.50;54.70;;;;;;4958115;28;20043;-64
2021/04/02 12:38:18;;;;;;;11.80;8.63;;;15.50;56.10;;;;;;4950690;28;20035;-65
2021/04/02 12:40:46;;;;;;;13.98;9.32;;;15.50;55.50;;;;;;4960220;28;20038;-63
2021/04/02 12:43:16;;;;;;;12.68;9.10;;;15.50;54.80;;;;;;4941513;28;20051;-64
2021/04/02 12:45:47;;;;;;;15.80;9.07;;;15.50;55.40;;;;;;4957745;28;20181;-63
2021/04/02 12:48:14;;;;;;;10.55;8.82;;;15.50;55.40;;;;;;4958908;28;20078;-63
2021/04/02 12:50:40;;;;;;;10.32;8.68;;;15.50;55.00;;;;;;4959321;28;20491;-64
2021/04/02 12:53:08;;;;;;;12.77;8.98;;;15.40;55.40;;;;;;4958832;28;20050;-64
2021/04/02 12:55:39;;;;;;;11.10;8.52;;;15.50;55.10;;;;;;4959342;28;20030;-63
2021/04/02 12:58:09;;;;;;;13.55;9.57;;;15.50;55.30;;;;;;4959397;28;20415;-63
2021/04/02 13:00:39;;;;;;;13.45;9.18;;;15.50;54.50;;;;;;4959298;28;20031;-63
2021/04/02 13:03:08;;;;;;;14.00;9.50;;;15.50;54.80;;;;;;4959129;28;20039;-64
2021/04/02 13:05:34;;;;;;;13.32;9.68;;;15.60;55.00;;;;;;4959040;28;20046;-63